Time;durP1;ratioP1;P1;durP2;ratioP2;P2;SDS_P1;SDS_P2;PMS_P1;PMS_P2;Temp;Humidity;BMP_temperature;BMP_pressure;BME280_temperature;BME280_humidity;BME280_pressure;Samples;Min_cycle;Max_cycle;Signal;HPM_P1;HPM_P2
2021/12/18 00:00:52;;;;;;;0.90;0.90;;;6.30;99.90;;;;;;5084807;28;20196;-59
2021/12/18 00:03:20;;;;;;;1.43;0.70;;;6.30;99.90;;;;;;5091468;28;20242;-59
2021/12/18 00:05:47;;;;;;;2.43;1.20;;;6.30;99.90;;;;;;5090505;28;20192;-58
2021/12/18 00:08:14;;;;;;;0.80;0.80;;;6.30;99.90;;;;;;5091171;28;20207;-58
2021/12/18 00:10:41;;;;;;;2.17;1.00;;;6.30;99.90;;;;;;5085674;28;20210;-58
2021/12/18 00:13:09;;;;;;;1.53;1.00;;;6.30;99.90;;;;;;5083619;28;20588;-59
2021/12/18 00:15:36;;;;;;;0.80;0.70;;;6.30;99.90;;;;;;5086344;28;20563;-59
2021/12/18 00:18:04;;;;;;;0.63;0.63;;;6.30;99.90;;;;;;5073192;28;20207;-59
2021/12/18 00:20:32;;;;;;;0.80;0.80;;;6.30;99.90;;;;;;5057293;28;20199;-59
2021/12/18 00:22:59;;;;;;;0.70;0.70;;;6.30;99.90;;;;;;5071317;28;20229;-59
2021/12/18 00:25:26;;;;;;;0.70;0.70;;;6.30;99.90;;;;;;5084607;28;20203;-59
2021/12/18 00:27:53;;;;;;;1.03;0.83;;;6.30;99.90;;;;;;5072477;28;20235;-60
2021/12/18 00:30:22;;;;;;;1.83;0.67;;;6.30;99.90;;;;;;5075701;28;20206;-59
2021/12/18 00:32:49;;;;;;;0.97;0.70;;;6.30;99.90;;;;;;5091418;28;20202;-58
2021/12/18 00:35:18;;;;;;;0.80;0.80;;;6.30;99.90;;;;;;5071448;28;20611;-58
2021/12/18 00:37:46;;;;;;;2.00;1.07;;;6.30;99.90;;;;;;5079305;28;20725;-59
2021/12/18 00:40:20;;;;;;;2.17;1.07;;;6.30;99.90;;;;;;5088478;28;20498;-59
2021/12/18 00:42:50;;;;;;;0.80;0.80;;;6.30;99.90;;;;;;5072683;28;20547;-59
2021/12/18 00:45:19;;;;;;;1.17;0.90;;;6.30;99.90;;;;;;5090226;28;20691;-59
2021/12/18 00:47:47;;;;;;;1.93;1.30;;;6.30;99.90;;;;;;5090037;28;20253;-59
2021/12/18 00:50:18;;;;;;;1.70;1.10;;;6.30;99.90;;;;;;5071405;28;20211;-59
2021/12/18 00:52:47;;;;;;;2.03;1.57;;;6.40;99.90;;;;;;5091572;28;20186;-58
2021/12/18 00:55:15;;;;;;;4.77;2.00;;;6.40;99.90;;;;;;5088254;28;20255;-59
2021/12/18 00:57:44;;;;;;;6.90;2.20;;;6.40;99.90;;;;;;5090342;28;20734;-59
2021/12/18 01:00:15;;;;;;;10.67;3.23;;;6.40;99.90;;;;;;5089937;28;20193;-58
2021/12/18 01:02:44;;;;;;;5.67;2.37;;;6.40;99.90;;;;;;5089711;28;20244;-59
2021/12/18 01:05:12;;;;;;;7.30;3.00;;;6.30;99.90;;;;;;5077138;28;20653;-59
2021/12/18 01:07:40;;;;;;;5.33;2.67;;;6.30;99.90;;;;;;5076116;28;20279;-59
2021/12/18 01:10:24;;;;;;;5.30;2.87;;;6.20;99.90;;;;;;5088322;28;20230;-58
2021/12/18 01:12:54;;;;;;;4.63;2.73;;;6.10;99.90;;;;;;5090256;28;20561;-58
2021/12/18 01:15:27;;;;;;;5.00;2.40;;;6.10;99.90;;;;;;5089594;28;20203;-58
2021/12/18 01:23:26;;;;;;;6.83;3.23;;;6.00;99.90;;;;;;5090481;28;20198;-58
2021/12/18 01:25:54;;;;;;;5.40;2.20;;;5.90;99.90;;;;;;5084648;28;20241;-58
2021/12/18 01:28:22;;;;;;;5.07;2.30;;;5.90;99.90;;;;;;5082663;28;20590;-59
2021/12/18 01:30:49;;;;;;;3.07;1.80;;;5.80;99.90;;;;;;5078471;28;20201;-58
2021/12/18 01:33:17;;;;;;;2.33;1.80;;;5.80;99.90;;;;;;5079855;28;20202;-59
2021/12/18 01:35:44;;;;;;;2.67;1.87;;;5.80;99.90;;;;;;5087252;28;20216;-59
2021/12/18 01:38:12;;;;;;;2.53;2.23;;;5.80;99.90;;;;;;5066504;28;20268;-59
2021/12/18 01:40:42;;;;;;;4.93;2.60;;;5.80;99.90;;;;;;5059286;28;20309;-60
2021/12/18 01:46:18;;;;;;;4.03;2.30;;;5.70;99.90;;;;;;5107441;27;20670;-59
2021/12/18 01:51:47;;;;;;;6.57;2.87;;;5.80;99.90;;;;;;5087558;28;20189;-59
2021/12/18 01:54:15;;;;;;;6.03;3.20;;;5.80;99.90;;;;;;5090299;28;20228;-60
2021/12/18 01:56:42;;;;;;;4.83;2.90;;;5.80;99.90;;;;;;5090845;28;20550;-60
2021/12/18 01:59:10;;;;;;;3.80;2.67;;;5.80;99.90;;;;;;5092187;28;20246;-59
2021/12/18 02:01:38;;;;;;;6.40;2.60;;;5.80;99.90;;;;;;5088141;28;20204;-58
2021/12/18 02:04:06;;;;;;;4.57;3.23;;;5.80;99.90;;;;;;5088994;28;20582;-59
2021/12/18 02:06:33;;;;;;;7.13;3.43;;;5.70;99.90;;;;;;5083360;28;20197;-59
2021/12/18 02:09:00;;;;;;;4.20;2.57;;;5.70;99.90;;;;;;5084441;28;20265;-59
2021/12/18 02:11:33;;;;;;;6.47;2.93;;;5.60;99.90;;;;;;5085099;28;20201;-59
2021/12/18 02:19:49;;;;;;;5.33;3.30;;;5.60;99.90;;;;;;5069508;28;20287;-61
2021/12/18 02:22:20;;;;;;;4.87;3.10;;;5.70;99.90;;;;;;5095372;28;20636;-60
2021/12/18 02:24:47;;;;;;;3.37;2.40;;;5.60;99.90;;;;;;5102449;28;20258;-58
2021/12/18 02:27:14;;;;;;;6.13;3.20;;;5.70;99.90;;;;;;5087922;28;20371;-59
2021/12/18 02:29:42;;;;;;;3.83;2.40;;;5.60;99.90;;;;;;5086587;28;20197;-59
2021/12/18 02:32:11;;;;;;;5.40;2.93;;;5.60;99.90;;;;;;5087191;28;20313;-59
2021/12/18 02:34:40;;;;;;;6.20;3.10;;;5.70;99.90;;;;;;5092936;28;20193;-60
2021/12/18 02:37:10;;;;;;;4.87;3.23;;;5.70;99.90;;;;;;5089697;28;20711;-60
2021/12/18 02:39:57;;;;;;;5.10;3.13;;;5.60;99.90;;;;;;5094001;28;20377;-59
2021/12/18 02:42:24;;;;;;;5.30;3.30;;;5.60;99.90;;;;;;5097274;28;20192;-59
2021/12/18 02:44:52;;;;;;;8.97;3.60;;;5.60;99.90;;;;;;5104566;28;20244;-60
2021/12/18 02:47:19;;;;;;;5.17;3.17;;;5.60;99.90;;;;;;5103534;28;20655;-59
2021/12/18 02:49:49;;;;;;;7.60;4.13;;;5.60;99.90;;;;;;5103805;28;20235;-59
2021/12/18 02:52:16;;;;;;;10.47;4.23;;;5.60;99.90;;;;;;5089863;28;20192;-58
2021/12/18 02:54:45;;;;;;;8.63;4.10;;;5.60;99.90;;;;;;5091671;28;20204;-58
2021/12/18 02:57:13;;;;;;;7.73;4.00;;;5.60;99.90;;;;;;5073269;28;20569;-59
2021/12/18 02:59:45;;;;;;;5.43;3.43;;;5.60;99.90;;;;;;5084135;28;20194;-60
2021/12/18 03:02:12;;;;;;;6.70;3.87;;;5.60;99.90;;;;;;5076796;28;20190;-59
2021/12/18 03:04:42;;;;;;;6.17;3.77;;;5.70;99.90;;;;;;5085742;28;20225;-59
2021/12/18 03:07:12;;;;;;;4.00;2.73;;;5.70;99.90;;;;;;5069553;28;20286;-59
2021/12/18 03:23:39;;;;;;;6.10;3.33;;;5.90;99.90;;;;;;5014605;28;20227;-60
2021/12/18 03:26:06;;;;;;;6.77;3.30;;;6.00;99.90;;;;;;5054512;28;20229;-60
2021/12/18 03:28:34;;;;;;;4.93;3.00;;;6.00;99.90;;;;;;5069545;28;20200;-60
2021/12/18 03:31:02;;;;;;;6.80;3.40;;;6.00;99.90;;;;;;5071465;28;20198;-60
2021/12/18 03:33:29;;;;;;;3.60;2.87;;;6.10;99.90;;;;;;5073276;28;20207;-60
2021/12/18 03:35:57;;;;;;;5.37;2.67;;;6.10;99.90;;;;;;5053877;28;20274;-60
2021/12/18 03:38:25;;;;;;;4.00;2.43;;;6.10;99.90;;;;;;5076873;28;20210;-61
2021/12/18 03:40:52;;;;;;;2.53;2.30;;;6.10;99.90;;;;;;5083142;28;20202;-61
2021/12/18 03:43:19;;;;;;;10.23;4.30;;;6.10;99.90;;;;;;5090288;28;20198;-61
2021/12/18 03:45:48;;;;;;;5.10;3.03;;;6.10;99.90;;;;;;5087452;28;20230;-60
2021/12/18 03:48:15;;;;;;;5.50;3.67;;;6.10;99.90;;;;;;5089857;28;20200;-60
2021/12/18 03:50:46;;;;;;;5.63;2.87;;;6.10;99.90;;;;;;5071171;28;20557;-60
2021/12/18 03:53:13;;;;;;;8.23;3.60;;;6.10;99.90;;;;;;5071937;28;20230;-60
2021/12/18 03:55:40;;;;;;;4.27;3.23;;;6.00;99.90;;;;;;5065681;28;20191;-59
2021/12/18 03:58:07;;;;;;;14.60;4.80;;;6.00;99.90;;;;;;5062300;28;20198;-59
2021/12/18 04:00:35;;;;;;;5.57;3.53;;;5.90;99.90;;;;;;5071139;28;20229;-59
2021/12/18 04:03:04;;;;;;;8.67;4.10;;;5.90;99.90;;;;;;5071852;28;20274;-60
2021/12/18 04:05:32;;;;;;;4.53;3.20;;;5.90;99.90;;;;;;5071185;28;20203;-59
2021/12/18 04:08:08;;;;;;;11.57;4.43;;;5.90;99.90;;;;;;5071322;28;20191;-60
2021/12/18 04:10:37;;;;;;;5.67;3.20;;;5.90;99.90;;;;;;5067148;28;20490;-59
2021/12/18 04:13:07;;;;;;;5.80;3.00;;;5.90;99.90;;;;;;5069762;28;20206;-59
2021/12/18 04:15:34;;;;;;;11.53;4.63;;;5.90;99.90;;;;;;5070529;28;20676;-59
2021/12/18 04:18:03;;;;;;;7.40;3.60;;;5.90;99.90;;;;;;5069869;28;20662;-60
2021/12/18 04:20:31;;;;;;;8.33;4.60;;;5.90;99.90;;;;;;5058297;28;20194;-59
2021/12/18 04:22:58;;;;;;;10.70;4.97;;;5.90;99.90;;;;;;5070320;28;20195;-59
2021/12/18 04:25:26;;;;;;;6.87;3.97;;;6.00;99.90;;;;;;5061181;28;20224;-59
2021/12/18 04:27:53;;;;;;;7.73;4.63;;;6.00;99.90;;;;;;5075328;28;20230;-58
2021/12/18 04:30:20;;;;;;;11.10;3.90;;;6.00;99.90;;;;;;5062507;28;20207;-59
2021/12/18 04:32:48;;;;;;;12.13;4.50;;;6.00;99.90;;;;;;5051235;28;20211;-59
2021/12/18 04:35:17;;;;;;;7.77;4.27;;;5.90;99.90;;;;;;5051048;28;20224;-59
2021/12/18 04:37:44;;;;;;;9.33;4.30;;;5.90;99.90;;;;;;5056916;28;20187;-58
2021/12/18 04:40:12;;;;;;;9.70;4.47;;;6.00;99.90;;;;;;5052328;28;20198;-58
2021/12/18 04:42:39;;;;;;;12.63;5.00;;;6.00;99.90;;;;;;5055892;28;20249;-59
2021/12/18 04:45:07;;;;;;;9.00;4.60;;;6.00;99.90;;;;;;5070357;28;20255;-59
2021/12/18 04:47:34;;;;;;;13.60;6.00;;;6.00;99.90;;;;;;5058610;28;20202;-60
2021/12/18 04:50:02;;;;;;;13.80;5.70;;;6.00;99.90;;;;;;5068771;28;20212;-60
2021/12/18 04:52:30;;;;;;;18.53;5.63;;;5.10;99.90;;;;;;5068061;28;20660;-60
2021/12/18 04:54:57;;;;;;;7.33;4.77;;;6.00;99.90;;;;;;5069623;28;20202;-61
2021/12/18 04:57:25;;;;;;;7.33;4.67;;;6.00;99.90;;;;;;5068367;28;20681;-61
2021/12/18 04:59:52;;;;;;;10.83;5.07;;;6.00;99.90;;;;;;5064378;28;20282;-60
2021/12/18 05:02:23;;;;;;;6.47;4.83;;;6.00;99.90;;;;;;5067193;28;20207;-61
2021/12/18 05:04:51;;;;;;;7.87;4.77;;;6.10;99.90;;;;;;5070095;28;20193;-60
2021/12/18 05:07:18;;;;;;;8.80;4.23;;;6.10;99.90;;;;;;5068956;28;20209;-59
2021/12/18 05:09:47;;;;;;;9.83;4.70;;;6.10;99.90;;;;;;5068075;28;20581;-59
2021/12/18 05:12:14;;;;;;;6.30;3.70;;;6.10;99.90;;;;;;5067436;28;20212;-60
2021/12/18 05:14:41;;;;;;;9.53;3.77;;;6.10;99.90;;;;;;5069411;28;20203;-59
2021/12/18 05:17:08;;;;;;;10.80;4.97;;;6.20;99.90;;;;;;5067019;28;20279;-60
2021/12/18 05:19:36;;;;;;;10.77;5.40;;;6.20;99.90;;;;;;5059560;28;20208;-60
2021/12/18 05:22:03;;;;;;;13.87;5.83;;;6.20;99.90;;;;;;5066642;28;20316;-58
2021/12/18 05:24:31;;;;;;;12.17;6.23;;;6.10;99.90;;;;;;5061367;28;20196;-59
2021/12/18 05:26:59;;;;;;;12.03;5.60;;;6.00;99.90;;;;;;5060981;28;20220;-59
2021/12/18 05:29:27;;;;;;;11.73;5.50;;;6.00;99.90;;;;;;5061347;28;20201;-59
2021/12/18 05:31:54;;;;;;;11.33;5.77;;;6.00;99.90;;;;;;5068077;28;20208;-59
2021/12/18 05:34:23;;;;;;;10.87;5.27;;;5.90;99.90;;;;;;5068506;28;20293;-59
2021/12/18 05:37:14;;;;;;;13.87;6.30;;;5.90;99.90;;;;;;5068880;28;20194;-59
2021/12/18 05:39:41;;;;;;;9.37;5.30;;;5.80;99.90;;;;;;5068927;28;20193;-60
2021/12/18 05:42:10;;;;;;;7.77;5.23;;;5.80;99.90;;;;;;5066284;28;20308;-60
2021/12/18 05:44:37;;;;;;;6.97;4.57;;;5.80;99.90;;;;;;5069610;28;20651;-59
2021/12/18 05:47:05;;;;;;;12.80;5.63;;;5.80;99.90;;;;;;5068818;28;20221;-59
2021/12/18 05:49:32;;;;;;;8.83;4.37;;;5.80;99.90;;;;;;5063858;28;20194;-59
2021/12/18 05:51:59;;;;;;;9.27;5.20;;;5.80;99.90;;;;;;5062738;28;20205;-59
2021/12/18 05:54:27;;;;;;;9.00;5.40;;;5.80;99.90;;;;;;5082248;28;20191;-60
2021/12/18 05:56:54;;;;;;;8.03;4.87;;;5.80;99.90;;;;;;5077451;28;20195;-59
2021/12/18 05:59:22;;;;;;;13.37;5.73;;;5.70;99.90;;;;;;5075155;28;20198;-59
2021/12/18 06:01:50;;;;;;;5.70;4.00;;;5.70;99.90;;;;;;5084967;28;20202;-58
2021/12/18 06:04:17;;;;;;;4.37;3.70;;;5.70;99.90;;;;;;5071080;28;20211;-59
2021/12/18 06:06:44;;;;;;;7.87;4.33;;;5.70;99.90;;;;;;5067907;28;20242;-59
2021/12/18 06:09:11;;;;;;;7.20;4.70;;;5.80;99.90;;;;;;5068030;28;20199;-59
2021/12/18 06:11:40;;;;;;;6.90;4.60;;;5.90;99.90;;;;;;5067185;28;20198;-59
2021/12/18 06:14:08;;;;;;;5.20;3.87;;;5.90;99.90;;;;;;5069114;28;20199;-58
2021/12/18 06:16:36;;;;;;;6.07;3.77;;;6.00;99.90;;;;;;5069318;28;20202;-59
2021/12/18 06:19:04;;;;;;;7.63;5.03;;;6.00;99.90;;;;;;5068640;28;20292;-59
2021/12/18 06:21:31;;;;;;;7.37;4.57;;;6.00;99.90;;;;;;5069103;28;20727;-59
2021/12/18 06:23:58;;;;;;;4.60;3.90;;;6.00;99.90;;;;;;5069517;28;20198;-59
2021/12/18 06:26:27;;;;;;;6.60;4.33;;;6.00;99.90;;;;;;5047276;28;20223;-59
2021/12/18 06:28:55;;;;;;;4.07;3.20;;;6.00;99.90;;;;;;5065496;28;20388;-60
2021/12/18 06:31:22;;;;;;;8.07;4.57;;;6.00;99.90;;;;;;5069123;28;20199;-60
2021/12/18 06:33:51;;;;;;;5.97;4.50;;;6.00;99.90;;;;;;5053328;28;20338;-60
2021/12/18 06:36:18;;;;;;;7.73;4.37;;;6.00;99.90;;;;;;5080010;28;20199;-60
2021/12/18 06:38:46;;;;;;;3.90;3.50;;;6.00;99.90;;;;;;5054883;28;20772;-60
2021/12/18 06:41:13;;;;;;;4.60;3.30;;;6.00;99.90;;;;;;5071137;28;20505;-59
2021/12/18 06:43:40;;;;;;;5.17;3.77;;;6.00;99.90;;;;;;5072677;28;20202;-59
2021/12/18 06:46:07;;;;;;;4.97;3.50;;;6.00;99.90;;;;;;5070337;28;20709;-59
2021/12/18 06:48:35;;;;;;;4.70;3.30;;;6.00;99.90;;;;;;5070836;28;20310;-60
2021/12/18 06:51:04;;;;;;;3.63;3.23;;;6.00;99.90;;;;;;5071193;28;20211;-59
2021/12/18 06:53:32;;;;;;;5.20;2.97;;;6.10;99.90;;;;;;5063005;28;20188;-59
2021/12/18 06:55:59;;;;;;;6.00;3.70;;;6.00;99.90;;;;;;5059713;28;20749;-59
2021/12/18 06:58:27;;;;;;;4.53;3.00;;;6.10;99.90;;;;;;5072501;28;20203;-58
2021/12/18 07:00:54;;;;;;;6.23;4.07;;;6.00;99.90;;;;;;5052176;28;20675;-59
2021/12/18 07:03:22;;;;;;;4.30;3.60;;;6.30;99.90;;;;;;5053637;28;20207;-59
2021/12/18 07:05:49;;;;;;;4.97;3.47;;;6.10;99.90;;;;;;5065027;28;20709;-59
2021/12/18 07:08:18;;;;;;;4.47;3.40;;;6.10;99.90;;;;;;5052870;28;20215;-59
2021/12/18 07:10:46;;;;;;;9.57;4.63;;;6.20;99.90;;;;;;5049845;28;20672;-60
2021/12/18 07:13:13;;;;;;;13.93;4.80;;;6.20;99.90;;;;;;5052834;28;20276;-60
2021/12/18 07:15:42;;;;;;;5.93;4.03;;;6.20;99.90;;;;;;5059776;28;20214;-59
2021/12/18 07:18:09;;;;;;;7.80;5.17;;;6.20;99.90;;;;;;5071044;28;20260;-59
2021/12/18 07:20:37;;;;;;;6.43;4.33;;;6.20;99.90;;;;;;5068455;28;20671;-60
2021/12/18 07:23:04;;;;;;;11.60;4.77;;;6.20;99.90;;;;;;5071400;28;20704;-60
2021/12/18 07:25:32;;;;;;;7.43;4.27;;;6.20;99.90;;;;;;5068386;28;20195;-60
2021/12/18 07:28:00;;;;;;;11.70;4.57;;;6.20;99.90;;;;;;5070785;28;20206;-59
2021/12/18 07:30:27;;;;;;;9.67;4.93;;;6.20;99.90;;;;;;5072177;28;20273;-59
2021/12/18 07:32:54;;;;;;;8.80;4.90;;;6.20;99.90;;;;;;5072515;28;20207;-60
2021/12/18 07:35:21;;;;;;;8.50;4.93;;;6.20;99.90;;;;;;5070431;28;20272;-59
2021/12/18 07:37:49;;;;;;;7.83;4.60;;;6.20;99.90;;;;;;5071739;28;20206;-59
2021/12/18 07:40:16;;;;;;;9.27;5.07;;;6.20;99.90;;;;;;5067450;28;20284;-60
2021/12/18 07:42:45;;;;;;;11.17;5.53;;;6.20;99.90;;;;;;5070014;28;20265;-59
2021/12/18 07:45:13;;;;;;;9.87;6.00;;;6.20;99.90;;;;;;5068578;28;20226;-60
2021/12/18 07:47:40;;;;;;;8.20;5.53;;;6.20;99.90;;;;;;5070277;28;20238;-59
2021/12/18 07:50:12;;;;;;;6.60;4.60;;;6.20;99.90;;;;;;5069930;28;20204;-59
2021/12/18 07:52:40;;;;;;;10.00;5.43;;;6.20;99.90;;;;;;5070209;28;20196;-60
2021/12/18 07:55:08;;;;;;;9.53;4.80;;;6.20;99.90;;;;;;5068816;28;20598;-60
2021/12/18 07:57:35;;;;;;;8.87;4.73;;;6.30;99.90;;;;;;5069338;28;20202;-59
2021/12/18 08:00:05;;;;;;;8.37;5.00;;;6.30;99.90;;;;;;5066295;28;20646;-59
2021/12/18 08:02:34;;;;;;;6.67;4.30;;;6.40;99.90;;;;;;5070723;28;20729;-60
2021/12/18 08:05:01;;;;;;;8.03;4.87;;;6.40;99.90;;;;;;5079718;28;20301;-60
2021/12/18 08:07:28;;;;;;;8.33;4.60;;;6.50;99.90;;;;;;5086916;28;20215;-59
2021/12/18 08:09:55;;;;;;;12.20;5.30;;;6.50;99.90;;;;;;5069850;28;20198;-60
2021/12/18 08:12:22;;;;;;;6.70;4.50;;;6.60;99.90;;;;;;5074157;28;20201;-59
2021/12/18 08:14:49;;;;;;;7.63;4.00;;;6.60;99.90;;;;;;5069918;28;20206;-59
2021/12/18 08:17:18;;;;;;;13.47;5.17;;;6.70;99.90;;;;;;5053510;28;20234;-60
2021/12/18 08:19:45;;;;;;;12.67;5.40;;;6.70;99.90;;;;;;5051605;28;20196;-60
2021/12/18 08:22:13;;;;;;;6.90;4.53;;;6.70;99.90;;;;;;5064350;28;20191;-59
2021/12/18 08:24:40;;;;;;;8.20;4.30;;;6.70;99.90;;;;;;5069346;28;20273;-59
2021/12/18 08:27:08;;;;;;;5.40;4.17;;;6.80;99.90;;;;;;5068746;28;20294;-58
2021/12/18 08:29:35;;;;;;;4.67;3.50;;;6.80;99.90;;;;;;5081051;28;20198;-59
2021/12/18 08:32:02;;;;;;;4.50;3.73;;;6.80;99.90;;;;;;5088673;28;20205;-59
2021/12/18 08:34:31;;;;;;;8.63;4.87;;;6.90;99.90;;;;;;5082365;28;20198;-59
2021/12/18 08:36:59;;;;;;;8.23;4.50;;;6.90;99.90;;;;;;5068368;28;20261;-60
2021/12/18 08:39:26;;;;;;;6.93;3.80;;;6.90;99.90;;;;;;5068505;28;20187;-60
2021/12/18 08:41:53;;;;;;;7.70;3.67;;;6.90;99.90;;;;;;5080500;28;20681;-60
2021/12/18 08:44:21;;;;;;;4.33;3.30;;;6.90;99.90;;;;;;5070357;28;20233;-59
2021/12/18 08:46:48;;;;;;;5.67;3.60;;;6.80;99.90;;;;;;5064583;28;20208;-59
2021/12/18 08:49:15;;;;;;;3.53;3.07;;;6.90;99.90;;;;;;5070257;28;20208;-58
2021/12/18 08:51:44;;;;;;;2.70;2.40;;;6.80;99.90;;;;;;5074385;28;20216;-59
2021/12/18 08:54:11;;;;;;;7.23;3.90;;;6.90;99.90;;;;;;5073343;28;20223;-59
2021/12/18 08:56:39;;;;;;;5.97;4.20;;;7.00;99.90;;;;;;5068480;28;20296;-60
2021/12/18 08:59:06;;;;;;;4.93;3.27;;;7.00;99.90;;;;;;5070403;28;20197;-60
2021/12/18 09:01:33;;;;;;;3.53;2.67;;;7.10;99.90;;;;;;5080969;28;20207;-60
2021/12/18 09:04:00;;;;;;;3.67;2.30;;;7.10;99.90;;;;;;5090583;28;20643;-60
2021/12/18 09:06:28;;;;;;;4.47;3.03;;;7.10;99.90;;;;;;5072528;28;20319;-59
2021/12/18 09:08:56;;;;;;;4.40;2.40;;;7.10;99.90;;;;;;5077659;28;20225;-60
2021/12/18 09:11:24;;;;;;;3.67;2.40;;;7.10;99.90;;;;;;5063513;28;20208;-60
2021/12/18 09:13:52;;;;;;;3.57;2.60;;;7.10;99.90;;;;;;5074458;28;20280;-60
2021/12/18 09:16:19;;;;;;;3.73;2.50;;;7.10;99.90;;;;;;5057434;28;20193;-58
2021/12/18 09:18:47;;;;;;;3.30;2.43;;;7.20;99.90;;;;;;5071335;28;20186;-59
2021/12/18 09:21:14;;;;;;;2.77;1.87;;;7.20;99.90;;;;;;5069258;28;20202;-59
2021/12/18 09:23:41;;;;;;;3.20;2.37;;;7.30;99.90;;;;;;5070489;28;20975;-60
2021/12/18 09:26:10;;;;;;;2.17;1.97;;;7.30;99.90;;;;;;5067002;28;20201;-59
2021/12/18 09:28:37;;;;;;;2.83;2.10;;;7.40;99.90;;;;;;5062262;28;20359;-59
2021/12/18 09:31:04;;;;;;;2.17;2.07;;;7.50;99.90;;;;;;5065268;28;20195;-59
2021/12/18 09:33:32;;;;;;;3.37;2.90;;;7.50;99.90;;;;;;5069222;28;20200;-60
2021/12/18 09:35:59;;;;;;;3.37;2.80;;;7.60;99.90;;;;;;5065768;28;20737;-59
2021/12/18 09:38:26;;;;;;;2.63;2.30;;;7.80;99.90;;;;;;5068037;28;20207;-59
2021/12/18 09:40:53;;;;;;;3.10;2.57;;;8.00;99.90;;;;;;5065571;28;20208;-59
2021/12/18 09:43:23;;;;;;;2.77;2.40;;;8.20;99.90;;;;;;5062007;28;20208;-60
2021/12/18 09:45:51;;;;;;;2.60;2.00;;;8.40;99.90;;;;;;5067345;28;20253;-59
2021/12/18 09:48:19;;;;;;;4.27;2.77;;;8.50;99.90;;;;;;5066307;28;20581;-60
2021/12/18 09:50:55;;;;;;;4.43;2.60;;;8.60;99.90;;;;;;5067600;28;20243;-59
2021/12/18 09:53:22;;;;;;;3.77;3.10;;;8.60;99.90;;;;;;5071582;28;20280;-59
2021/12/18 09:55:49;;;;;;;2.77;2.57;;;8.60;99.90;;;;;;5068132;28;20196;-59
2021/12/18 09:58:17;;;;;;;2.20;2.03;;;8.60;99.90;;;;;;5072044;28;20193;-60
2021/12/18 10:00:45;;;;;;;2.83;2.53;;;8.60;99.90;;;;;;5070139;28;20347;-60
2021/12/18 10:03:12;;;;;;;2.90;2.60;;;8.60;99.90;;;;;;5066052;28;20250;-59
2021/12/18 10:05:40;;;;;;;4.03;2.53;;;8.50;99.90;;;;;;5067840;28;20308;-60
2021/12/18 10:08:14;;;;;;;4.13;2.87;;;8.50;99.90;;;;;;5073624;28;20679;-59
2021/12/18 10:11:07;;;;;;;2.40;2.20;;;8.40;99.90;;;;;;5063106;28;20250;-59
2021/12/18 10:13:53;;;;;;;2.83;2.50;;;8.40;99.90;;;;;;5071917;28;20315;-60
2021/12/18 10:16:22;;;;;;;3.40;2.50;;;8.30;99.90;;;;;;5070660;28;20444;-60
2021/12/18 10:18:50;;;;;;;2.57;2.37;;;8.30;99.90;;;;;;5068865;28;20727;-60
2021/12/18 10:21:19;;;;;;;2.30;2.10;;;8.40;99.90;;;;;;5071755;28;20219;-60
2021/12/18 10:23:48;;;;;;;3.07;2.40;;;8.40;99.90;;;;;;5070312;28;20556;-60
2021/12/18 10:26:35;;;;;;;2.33;2.03;;;8.40;99.90;;;;;;5069729;28;20414;-60
2021/12/18 10:29:03;;;;;;;2.20;1.80;;;8.40;99.90;;;;;;5072069;28;20248;-59
2021/12/18 10:31:44;;;;;;;3.03;2.60;;;8.50;99.90;;;;;;5073622;28;20219;-59
2021/12/18 10:34:19;;;;;;;3.40;2.40;;;8.50;99.90;;;;;;5073825;28;20197;-60
2021/12/18 10:37:14;;;;;;;2.47;2.20;;;8.50;99.90;;;;;;5073015;28;20624;-60
2021/12/18 10:39:44;;;;;;;2.83;2.37;;;8.50;99.90;;;;;;5058058;28;20522;-60
2021/12/18 10:42:19;;;;;;;2.53;2.20;;;8.50;99.90;;;;;;5068510;28;20194;-59
2021/12/18 10:45:10;;;;;;;2.00;1.80;;;8.60;99.90;;;;;;5076431;28;20239;-59
2021/12/18 10:47:52;;;;;;;2.50;2.30;;;8.60;99.90;;;;;;5056698;28;20215;-60
2021/12/18 10:50:25;;;;;;;3.30;2.33;;;8.60;99.90;;;;;;5065711;28;20217;-60
2021/12/18 10:52:57;;;;;;;2.07;1.87;;;8.50;99.90;;;;;;5070750;28;20204;-60
2021/12/18 10:55:45;;;;;;;1.70;1.60;;;8.50;99.90;;;;;;5062960;28;20201;-61
2021/12/18 10:58:14;;;;;;;2.50;1.90;;;8.50;99.90;;;;;;5070093;28;20209;-59
2021/12/18 11:00:59;;;;;;;2.77;1.90;;;8.40;99.90;;;;;;5066958;28;20198;-59
2021/12/18 11:03:31;;;;;;;2.67;2.00;;;8.30;99.90;;;;;;5064323;28;20193;-60
2021/12/18 11:06:19;;;;;;;2.20;1.73;;;8.30;99.90;;;;;;5058075;28;20265;-60
2021/12/18 11:08:58;;;;;;;2.47;1.87;;;8.20;99.90;;;;;;5067295;28;20305;-58
2021/12/18 11:14:15;;;;;;;1.93;1.60;;;8.10;99.90;;;;;;5070813;28;20185;-60
2021/12/18 11:16:47;;;;;;;2.13;1.93;;;8.10;99.90;;;;;;5065624;28;20191;-60
2021/12/18 11:19:18;;;;;;;1.80;1.70;;;8.10;99.90;;;;;;5054665;28;20225;-60
2021/12/18 11:21:48;;;;;;;1.90;1.60;;;8.10;99.90;;;;;;5067673;28;20188;-61
2021/12/18 11:24:16;;;;;;;1.97;1.77;;;8.10;99.90;;;;;;5071409;28;20200;-60
2021/12/18 11:26:58;;;;;;;2.37;2.00;;;8.10;99.90;;;;;;5064786;28;20202;-59
2021/12/18 11:29:32;;;;;;;2.53;1.80;;;8.10;99.90;;;;;;5070992;28;20197;-60
2021/12/18 11:32:01;;;;;;;2.77;2.07;;;8.10;99.90;;;;;;5070343;28;20323;-59
2021/12/18 11:34:29;;;;;;;1.97;1.77;;;8.10;99.90;;;;;;5071024;28;20193;-60
2021/12/18 11:36:59;;;;;;;2.50;1.80;;;8.10;99.90;;;;;;5071486;28;20194;-61
2021/12/18 11:39:30;;;;;;;2.50;1.90;;;8.20;99.90;;;;;;5067367;28;20568;-60
2021/12/18 11:41:58;;;;;;;2.23;2.00;;;8.20;99.90;;;;;;5066808;28;20208;-60
2021/12/18 11:44:31;;;;;;;2.40;2.13;;;8.30;99.90;;;;;;5069239;28;20235;-60
2021/12/18 11:46:59;;;;;;;2.33;1.97;;;8.30;99.90;;;;;;5069141;28;20281;-60
2021/12/18 11:49:43;;;;;;;1.87;1.70;;;8.40;99.90;;;;;;5064920;28;20190;-60
2021/12/18 11:52:10;;;;;;;2.07;1.93;;;8.40;99.90;;;;;;5069376;28;20297;-60
2021/12/18 11:54:45;;;;;;;2.13;1.77;;;8.50;99.90;;;;;;5068204;28;20502;-60
2021/12/18 11:57:14;;;;;;;2.13;1.77;;;8.50;99.90;;;;;;5067328;28;20216;-60
2021/12/18 11:59:42;;;;;;;2.17;1.97;;;8.60;99.90;;;;;;5069363;28;20195;-58
2021/12/18 12:02:11;;;;;;;1.70;1.60;;;8.60;99.90;;;;;;5058469;28;20205;-60
2021/12/18 12:05:02;;;;;;;2.10;1.97;;;8.60;99.90;;;;;;5062237;28;20269;-59
2021/12/18 12:07:29;;;;;;;2.27;1.60;;;8.60;99.90;;;;;;5070984;28;20297;-59
2021/12/18 12:10:20;;;;;;;3.30;1.83;;;8.60;99.90;;;;;;5069815;28;20201;-59
2021/12/18 12:12:51;;;;;;;2.00;1.80;;;8.60;99.90;;;;;;5061429;28;20193;-60
2021/12/18 12:15:20;;;;;;;1.53;1.43;;;8.70;99.90;;;;;;5070249;28;20661;-60
2021/12/18 12:17:55;;;;;;;2.30;1.80;;;8.80;99.90;;;;;;5071410;28;20192;-60
2021/12/18 12:20:36;;;;;;;1.80;1.70;;;8.80;99.90;;;;;;5068558;28;20721;-59
2021/12/18 12:23:03;;;;;;;5.43;3.23;;;8.80;99.90;;;;;;5070181;28;20189;-60
2021/12/18 12:25:46;;;;;;;2.70;2.50;;;8.90;99.90;;;;;;5067155;28;20209;-59
2021/12/18 12:28:16;;;;;;;2.83;2.30;;;8.80;99.90;;;;;;5061636;28;20206;-59
2021/12/18 12:30:47;;;;;;;2.20;2.00;;;8.80;99.90;;;;;;5069639;28;20229;-60
2021/12/18 12:33:27;;;;;;;3.23;1.93;;;8.80;99.90;;;;;;5069429;28;20639;-59
2021/12/18 12:36:00;;;;;;;2.33;2.13;;;8.70;99.90;;;;;;5068395;28;20213;-60
2021/12/18 12:38:29;;;;;;;2.43;2.23;;;8.70;99.90;;;;;;5070479;28;20212;-60
2021/12/18 12:40:57;;;;;;;1.80;1.70;;;8.60;99.90;;;;;;5066612;28;20198;-60
2021/12/18 12:43:30;;;;;;;3.17;2.20;;;8.60;99.90;;;;;;5070415;28;20202;-59
2021/12/18 12:46:04;;;;;;;2.93;2.40;;;8.60;99.90;;;;;;5068678;28;20289;-59
2021/12/18 12:49:01;;;;;;;2.23;2.03;;;8.60;99.90;;;;;;5070566;28;20205;-60
2021/12/18 12:52:09;;;;;;;1.70;1.60;;;8.60;99.90;;;;;;5063957;28;20209;-60
2021/12/18 12:54:49;;;;;;;2.47;2.00;;;8.60;99.90;;;;;;5062605;28;20297;-60
2021/12/18 12:57:51;;;;;;;2.77;2.30;;;8.60;99.90;;;;;;5063139;28;20530;-60
2021/12/18 13:00:42;;;;;;;2.07;1.87;;;8.50;99.90;;;;;;5059445;28;20198;-60
2021/12/18 13:03:37;;;;;;;2.57;2.33;;;8.50;99.90;;;;;;5048866;28;20200;-60
2021/12/18 13:06:10;;;;;;;2.83;2.50;;;8.50;99.90;;;;;;5048530;28;20190;-60
2021/12/18 13:08:41;;;;;;;2.33;2.00;;;8.50;99.90;;;;;;5048852;28;20202;-59
2021/12/18 13:11:10;;;;;;;1.77;1.60;;;8.40;99.90;;;;;;5045425;28;20352;-61
2021/12/18 13:13:37;;;;;;;2.10;1.87;;;8.50;99.90;;;;;;5064380;28;20600;-60
2021/12/18 13:16:10;;;;;;;3.50;2.80;;;8.50;99.90;;;;;;5067761;28;20289;-60
2021/12/18 13:18:40;;;;;;;2.73;2.23;;;8.50;99.90;;;;;;5077826;28;20716;-60
2021/12/18 13:21:10;;;;;;;2.43;2.20;;;8.60;99.90;;;;;;5059428;28;20189;-60
2021/12/18 13:23:48;;;;;;;2.07;1.83;;;8.50;99.90;;;;;;5065268;28;20216;-60
2021/12/18 13:26:18;;;;;;;4.03;2.00;;;8.50;99.90;;;;;;5065232;28;20226;-60
2021/12/18 13:28:50;;;;;;;2.90;2.40;;;8.50;99.90;;;;;;5065998;28;20209;-61
2021/12/18 13:31:18;;;;;;;2.87;1.97;;;8.40;99.90;;;;;;5064795;28;20549;-60
2021/12/18 13:33:46;;;;;;;2.53;2.00;;;8.40;99.90;;;;;;5060205;28;20202;-60
2021/12/18 13:36:13;;;;;;;1.70;1.60;;;8.40;99.90;;;;;;5058872;28;20559;-59
2021/12/18 13:38:44;;;;;;;17.50;3.33;;;8.40;99.90;;;;;;5064592;28;20189;-59
2021/12/18 13:41:14;;;;;;;3.13;2.07;;;8.30;99.90;;;;;;5058713;28;20290;-60
2021/12/18 13:43:44;;;;;;;4.30;2.00;;;8.50;99.90;;;;;;5064313;28;20263;-59